Flight Track Log - Related Links

Times and Time Zones

All times are in EDT time to prevent confusion due to time zone crossing. See the AFL1440 flight status page for this flight to view local times or setup timezone preferences in your user account.

Time Position Orientation Groundspeed Altitude Reporting Facility
EDT Latitude Longitude Course Direction KTS MPH feet Rate Location/Type
Fri 10:42:00 AM 56.2463 38.3971 67° East  Level Estimated
Fri 10:43:00 AM 56.2916 38.5939 67° East  Level Estimated
Fri 10:44:00 AM 56.3366 38.7913 68° East  Level Estimated
Fri 10:45:00 AM 56.3812 38.9891 68° East  Level Estimated
Fri 10:46:00 AM 56.4255 39.1874 68° East  Level Estimated
Fri 10:47:00 AM 56.4695 39.3861 68° East  Level Estimated
Fri 10:48:00 AM 56.5132 39.5853 68° East  Level Estimated
Fri 10:49:00 AM 56.5566 39.7849 68° East  Level Estimated
Fri 10:50:00 AM 56.5997 39.9850 69° East  Level Estimated
Fri 10:51:00 AM 56.6424 40.1856 69° East  Level Estimated
Fri 10:52:00 AM 56.6848 40.3866 69° East  Level Estimated
Fri 10:53:00 AM 56.7269 40.5881 69° East  Level Estimated
Fri 10:54:00 AM 56.7674 40.7839 69° East  Level Estimated
Fri 10:55:00 AM 56.8075 40.9801 69° East  Level Estimated
Fri 10:56:00 AM 56.8474 41.1767 70° East  Level Estimated
Fri 10:57:00 AM 56.8870 41.3737 70° East  Level Estimated
Fri 10:58:00 AM 56.9263 41.5712 70° East  Level Estimated
Fri 10:59:00 AM 56.9652 41.7691 70° East  Level Estimated
Fri 11:00:00 AM 57.0038 41.9674 70° East  Level Estimated
Fri 11:01:00 AM 57.0422 42.1661 70° East  Level Estimated
Fri 11:02:00 AM 57.0802 42.3652 71° East  Level Estimated
Fri 11:03:00 AM 57.1179 42.5647 71° East  Level Estimated
Fri 11:04:00 AM 57.1552 42.7646 71° East  Level Estimated
Fri 11:05:00 AM 57.1923 42.9650 71° East  Level Estimated
Fri 11:06:00 AM 57.2290 43.1657 71° East  Level Estimated
Fri 11:07:00 AM 57.2654 43.3668 71° East  Level Estimated
Fri 11:08:00 AM 57.3015 43.5683 72° East  Level Estimated
Fri 11:09:00 AM 57.3373 43.7702 72° East  Level Estimated
Fri 11:10:00 AM 57.3727 43.9725 72° East  Level Estimated
Fri 11:11:00 AM 57.4078 44.1752 72° East  Level Estimated
Fri 11:12:00 AM 57.4426 44.3783 72° East  Level Estimated
Fri 11:13:00 AM 57.4771 44.5818 72° East  Level Estimated
Fri 11:14:00 AM 57.5112 44.7856 73° East  Level Estimated
Fri 11:15:00 AM 57.5451 44.9898 73° East  Level Estimated
Fri 11:16:00 AM 57.5785 45.1945 73° East  Level Estimated
Fri 11:17:00 AM 57.6117 45.3994 73° East  Level Estimated
Fri 11:18:00 AM 57.6445 45.6048 73° East  Level Estimated
Fri 11:19:00 AM 57.6770 45.8105 73° East  Level Estimated
Fri 11:20:00 AM 57.7091 46.0166 74° East  Level Estimated
Fri 11:21:00 AM 57.7409 46.2231 74° East  Level Estimated
Fri 11:22:00 AM 57.7724 46.4299 74° East  Level Estimated
Fri 11:23:00 AM 57.8035 46.6371 74° East  Level Estimated
Fri 11:24:00 AM 57.8343 46.8446 74° East  Level Estimated
Fri 11:25:00 AM 57.8648 47.0525 75° East  Level Estimated
Fri 11:26:00 AM 57.8949 47.2607 75° East  Level Estimated
Fri 11:27:00 AM 57.9247 47.4693 75° East  Level Estimated
Fri 11:28:00 AM 57.9541 47.6782 75° East  Level Estimated
Fri 11:29:00 AM 57.9832 47.8875 75° East  Level Estimated
Fri 11:30:00 AM 58.0120 48.0971 75° East  Level Estimated
Fri 11:31:00 AM 58.0404 48.3070 76° East  Level Estimated
Fri 11:32:00 AM 58.0684 48.5173 76° East  Level Estimated
Fri 11:33:00 AM 58.0961 48.7279 76° East  Level Estimated
Fri 11:34:00 AM 58.1235 48.9388 76° East  Level Estimated
Fri 11:35:00 AM 58.1505 49.1501 76° East  Level Estimated
Fri 11:36:00 AM 58.1772 49.3616 76° East  Level Estimated
Fri 11:37:00 AM 58.2035 49.5735 77° East  Level Estimated
Fri 11:38:00 AM 58.2295 49.7857 77° East  Level Estimated
Fri 11:39:00 AM 58.2551 49.9982 77° East  Level Estimated
Fri 11:40:00 AM 58.2803 50.2110 77° East  Level Estimated
Fri 11:41:00 AM 58.3052 50.4241 77° East  Level Estimated
Fri 11:42:00 AM 58.3298 50.6376 78° East  Level Estimated
Fri 11:43:00 AM 58.3540 50.8513 78° East  Level Estimated
Fri 11:44:00 AM 58.3778 51.0653 78° East  Level Estimated
Fri 11:45:00 AM 58.4013 51.2795 78° East  Level Estimated
Fri 11:46:00 AM 58.4244 51.4941 78° East  Level Estimated
Fri 11:47:00 AM 58.4472 51.7090 78° East  Level Estimated
Fri 11:48:00 AM 58.4696 51.9241 79° East  Level Estimated
Fri 11:49:00 AM 58.4916 52.1395 79° East  Level Estimated
Fri 11:50:00 AM 58.5133 52.3551 79° East  Level Estimated
Fri 11:51:00 AM 58.5346 52.5710 79° East  Level Estimated
Fri 11:52:00 AM 58.5556 52.7872 79° East  Level Estimated
Fri 11:53:00 AM 58.5762 53.0037 80° East  Level Estimated
Fri 11:54:00 AM 58.5964 53.2204 80° East  Level Estimated
Fri 11:55:00 AM 58.6163 53.4373 80° East  Level Estimated
Fri 11:56:00 AM 58.6357 53.6545 80° East  Level Estimated
Fri 11:57:00 AM 58.6549 53.8719 80° East  Level Estimated
Fri 11:58:00 AM 58.6736 54.0896 80° East  Level Estimated
Fri 11:59:00 AM 58.6921 54.3075 81° East  Level Estimated
Fri 12:00:00 PM 58.7101 54.5256 81° East  Level Estimated
Fri 12:01:00 PM 58.7277 54.7440 81° East  Level Estimated
Fri 12:02:00 PM 58.7450 54.9625 81° East  Level Estimated
Fri 12:03:00 PM 58.7619 55.1813 81° East  Level Estimated
Fri 12:04:00 PM 58.7785 55.4003 82° East  Level Estimated
Fri 12:05:00 PM 58.7947 55.6195 82° East  Level Estimated
Fri 12:06:00 PM 58.8105 55.8389 82° East  Level Estimated
Fri 12:07:00 PM 58.8259 56.0585 82° East  Level Estimated
Fri 12:08:00 PM 58.8410 56.2783 82° East  Level Estimated
Fri 12:09:00 PM 58.8557 56.4983 83° East  Level Estimated
Fri 12:10:00 PM 58.8700 56.7184 83° East  Level Estimated
Fri 12:11:00 PM 58.8839 56.9388 83° East  Level Estimated
Fri 12:12:00 PM 58.8975 57.1593 83° East  Level Estimated
Fri 12:13:00 PM 58.9106 57.3800 83° East  Level Estimated
Fri 12:14:00 PM 58.9235 57.6009 83° East  Level Estimated
Fri 12:15:00 PM 58.9359 57.8219 84° East  Level Estimated
Fri 12:16:00 PM 58.9479 58.0431 84° East  Level Estimated
Fri 12:17:00 PM 58.9596 58.2644 84° East  Level Estimated
Fri 12:18:45 PM 60.1409 61.8105 90° East 514 592 33,000  Level FlightAware ADS-B (USTR / TJM)
Fri 12:19:16 PM 60.1414 61.9624 89° East 513 590 33,000  Level FlightAware ADS-B (USTR / TJM)
Fri 12:19:23 PM 60.1415 61.9949 90° East 513 590 33,000  Level FlightAware ADS-B (USTR / TJM)
Fri 12:19:45 PM 60.1417 62.0909 89° East 513 590 33,000  Level FlightAware ADS-B (USTR / TJM)
Fri 12:19:55 PM 60.1418 62.1366 90° East 513 590 33,000  Level FlightAware ADS-B (USTR / TJM)
Fri 12:20:15 PM 60.1418 62.2326 90° East 514 592 33,000  Level FlightAware ADS-B (USTR / TJM)
Fri 12:20:33 PM 60.1416 62.3279 90° East 513 590 33,000  Level FlightAware ADS-B (USTR / TJM)
Fri 12:20:45 PM 60.1416 62.3845 90° East 513 590 33,000  Level FlightAware ADS-B (USTR / TJM)
Fri 12:21:04 PM 60.1414 62.4704 90° East 513 590 33,000  Level FlightAware ADS-B (USTR / TJM)
Fri 12:21:18 PM 60.1413 62.5392 90° East 513 590 33,000  Level FlightAware ADS-B (USTR / TJM)
Fri 12:21:42 PM 60.1412 62.5898 90° East 513 590 33,000  Level FlightAware ADS-B (USTR / TJM)
Fri 12:22:51 PM 60.1393 62.9814 90° East 513 590 33,000  Level FlightAware ADS-B (USTR / TJM)
Fri 12:23:03 PM 60.1389 63.0340 91° East 512 589 33,000  Level FlightAware ADS-B (USTR / TJM)
Fri 12:23:21 PM 60.1382 63.1217 90° East 512 589 33,000  Level FlightAware ADS-B (USTR / TJM)
Fri 12:23:34 PM 60.1378 63.1773 91° East 512 589 33,000  Level FlightAware ADS-B (USTR / TJM)
Fri 12:23:52 PM 60.1371 63.2701 90° East 512 589 33,000  Level FlightAware ADS-B (USTR / TJM)
Fri 12:24:05 PM 60.1367 63.3255 91° East 512 589 33,000  Level FlightAware ADS-B (USTR / TJM)
Fri 12:24:21 PM 60.1361 63.4092 90° East 512 589 33,000  Level FlightAware ADS-B (USTR / TJM)
Fri 12:24:45 PM 60.1352 63.5133 91° East 512 589 33,000  Level FlightAware ADS-B (USTR / TJM)
Fri 12:24:52 PM 60.1347 63.5547 91° East 512 589 33,000  Level FlightAware ADS-B (USTR / TJM)
Fri 12:25:20 PM 60.1332 63.6870 91° East 513 590 33,000  Level FlightAware ADS-B (USTR / TJM)
Fri 12:25:23 PM 60.1331 63.6970 91° East 513 590 33,000  Level FlightAware ADS-B (USTR / TJM)
Fri 12:25:51 PM 60.1316 63.8316 91° East 514 592 33,000  Level FlightAware ADS-B (USTR / TJM)
Fri 12:25:54 PM 60.1314 63.8459 91° East 514 592 33,000  Level FlightAware ADS-B (USTR / TJM)
Fri 12:26:21 PM 60.1301 63.9615 91° East 514 592 33,000  Level FlightAware ADS-B (USTR / TJM)
Fri 12:26:24 PM 60.1297 63.9898 91° East 514 592 33,000  Level FlightAware ADS-B (USTR / TJM)
Fri 12:26:52 PM 60.1280 64.1237 91° East 515 593 33,000  Level FlightAware ADS-B (USTR / TJM)
Fri 12:26:54 PM 60.1279 64.1288 91° East 515 593 33,000  Level FlightAware ADS-B (USTR / TJM)
Fri 12:27:22 PM 60.1262 64.2676 91° East 514 592 33,000  Level FlightAware ADS-B (USTR / TJM)
Fri 12:27:35 PM 60.1255 64.3204 92° East 514 592 33,000  Level FlightAware ADS-B (USTR / TJM)
Fri 12:27:51 PM 60.1243 64.4055 91° East 514 592 33,000  Level FlightAware ADS-B (USTR / TJM)
Fri 12:28:05 PM 60.1234 64.4641 92° East 514 592 33,000  Level FlightAware ADS-B (USTR / TJM)
Fri 12:28:23 PM 60.1220 64.5492 91° East 513 590 33,000  Level FlightAware ADS-B (USTR / TJM)
Fri 12:28:35 PM 60.1212 64.6017 92° East 513 590 33,000  Level FlightAware ADS-B (USTR / TJM)
Fri 12:28:52 PM 60.1196 64.6926 91° East 513 590 33,000  Level FlightAware ADS-B (USTR / TJM)
Fri 12:29:05 PM 60.1188 64.7432 92° East 513 590 33,000  Level FlightAware ADS-B (USTR / TJM)
Fri 12:29:22 PM 60.1172 64.8321 92° East 513 590 33,000  Level FlightAware ADS-B (USTR / TJM)
Fri 12:29:45 PM 60.1143 64.9381 94° East 514 592 33,000  Level FlightAware ADS-B (USTR / TJM)
Fri 12:30:11 PM 60.1082 65.0668 95° East 512 589 33,000  Level FlightAware ADS-B (USTR / TJM)
Fri 12:30:24 PM 60.1056 65.1180 96° East 513 590 33,000  Level FlightAware ADS-B (USTR / TJM)
Fri 12:30:42 PM 60.1010 65.2094 95° East 512 589 33,000  Level FlightAware ADS-B (USTR / TJM)
Fri 12:30:54 PM 60.0981 65.2696 95° East 512 589 33,000  Level FlightAware ADS-B (USTR / TJM)
Fri 12:31:11 PM 60.0942 65.3521 95° East 512 589 33,000  Level FlightAware ADS-B (USTR / TJM)
Fri 12:31:25 PM 60.0920 65.4003 95° East 512 589 33,000  Level FlightAware ADS-B (USTR / TJM)
Fri 12:31:42 PM 60.0874 65.4967 95° East 512 589 33,000  Level FlightAware ADS-B (USTR / TJM)
Fri 12:32:04 PM 60.0829 65.5910 96° East 512 589 33,000  Level FlightAware ADS-B (USTR / TJM)
Fri 12:32:11 PM 60.0810 65.6302 95° East 512 589 33,000  Level FlightAware ADS-B (USTR / TJM)
Fri 12:32:35 PM 60.0759 65.7345 96° East 511 588 33,000  Level FlightAware ADS-B (USTR / TJM)
Fri 12:32:42 PM 60.0741 65.7716 95° East 511 588 33,000  Level FlightAware ADS-B (USTR / TJM)
Fri 12:33:05 PM 60.0685 65.8809 96° East 513 590 33,000  Level FlightAware ADS-B (USTR / TJM)
Fri 12:33:11 PM 60.0669 65.9130 95° East 512 589 33,000  Level FlightAware ADS-B (USTR / TJM)
Fri 12:33:41 PM 60.0595 66.0564 95° East 512 589 33,000  Level FlightAware ADS-B (USTR / TJM)
Fri 12:33:45 PM 60.0586 66.0745 96° East 513 590 33,000  Level FlightAware ADS-B (USTR / TJM)
Fri 12:34:11 PM 60.0524 66.1919 96° East 512 589 33,000  Level FlightAware ADS-B (USTR / TJM)
Fri 12:34:15 PM 60.0514 66.2108 96° East 513 590 33,000  Level FlightAware ADS-B (USTR / TJM)
Fri 12:34:42 PM 60.0446 66.3372 96° East 512 589 33,000  Level FlightAware ADS-B (USTR / TJM)
Fri 12:34:54 PM 60.0417 66.3906 96° East 514 592 33,000  Level FlightAware ADS-B (USTR / TJM)
Fri 12:35:11 PM 60.0370 66.4758 96° East 514 592 33,000  Level FlightAware ADS-B (USTR / TJM)
Fri 12:35:25 PM 60.0338 66.5331 96° East 514 592 33,000  Level FlightAware ADS-B (USTR / TJM)
Fri 12:35:42 PM 60.0288 66.6227 96° East 514 592 33,000  Level FlightAware ADS-B (USTR / TJM)
Fri 12:36:04 PM 60.0233 66.7191 97° East 515 593 33,000  Level FlightAware ADS-B (USTR / TJM)
Fri 12:36:12 PM 60.0205 66.7673 96° East 515 593 33,000  Level FlightAware ADS-B (USTR / TJM)
Fri 12:36:34 PM 60.0147 66.8679 97° East 516 594 33,000  Level FlightAware ADS-B (USTR / TJM)
Fri 12:36:41 PM 60.0128 66.9002 96° East 515 593 33,000  Level FlightAware ADS-B (USTR / TJM)
Fri 12:37:05 PM 60.0060 67.0158 97° East 517 595 33,000  Level FlightAware ADS-B (USTR / TJM)
Fri 12:37:12 PM 60.0047 67.0379 96° East 516 594 33,000  Level FlightAware ADS-B (USTR / TJM)
Fri 12:37:41 PM 59.9957 67.1859 97° East 515 593 33,000  Level FlightAware ADS-B (USTR / TJM)
Fri 12:37:44 PM 59.9955 67.1900 97° East 517 595 33,000  Level FlightAware ADS-B (USTR / TJM)
Fri 12:38:12 PM 59.9870 67.3247 97° East 515 593 33,000  Level FlightAware ADS-B (USTR / TJM)
Fri 12:38:15 PM 59.9859 67.3428 97° East 516 594 33,000  Level FlightAware ADS-B (USTR / TJM)
Fri 12:38:41 PM 59.9781 67.4674 97° East 514 592 33,000  Level FlightAware ADS-B (USTR / TJM)
Fri 12:38:45 PM 59.9773 67.4804 97° East 515 593 33,000  Level FlightAware ADS-B (USTR / TJM)
Fri 12:38:51 PM 59.9752 67.5135 97° East 515 593 33,000  Level FlightAware ADS-B (USTR / TJM)
Fri 12:39:56 PM 59.9551 67.8226 97° East 515 593 33,000  Level FlightAware ADS-B (USTR / TJM)
Fri 12:40:13 PM 59.9506 67.8909 98° East 517 595 33,000  Level FlightAware ADS-B (USTR / TJM)
Fri 12:40:27 PM 59.9464 67.9541 97° East 516 594 33,000  Level FlightAware ADS-B (USTR / TJM)
Fri 12:40:45 PM 59.9404 68.0426 98° East 517 595 33,000  Level FlightAware ADS-B (USTR / TJM)
Fri 12:40:56 PM 59.9364 68.1008 97° East 516 594 33,000  Level FlightAware ADS-B (USTR / TJM)
Fri 12:41:15 PM 59.9307 68.1830 98° East 518 596 33,000  Level FlightAware ADS-B (USTR / TJM)
Fri 12:41:24 PM 59.9277 68.2253 97° East 517 595 33,000  Level FlightAware ADS-B (USTR / TJM)
Fri 12:41:55 PM 59.9194 68.3453 98° East 520 598 33,000  Level FlightAware ADS-B (USTR / TJM)
Fri 12:41:57 PM 59.9163 68.3897 97° East 520 598 33,000  Level FlightAware ADS-B (USTR / TJM)
Fri 12:42:19 PM 59.9088 68.4938 98° East 521 600 33,000  Level FlightAware ADS-B (USTR / TJM)
Fri 12:42:31 PM 59.9049 68.5484 98° East 522 601 33,000  Level FlightAware ADS-B (USTR / TJM)
Fri 12:45:15 PM 59.8462 69.3276 99° East 521 600 33,000  Level FlightAware ADS-B (USTR / TJM)
Fri 12:45:17 PM 59.8455 69.3366 98° East 521 600 33,000  Level FlightAware ADS-B (USTR / TJM)
Fri 12:45:54 PM 59.8320 69.5069 99° East 524 603 33,000  Level FlightAware ADS-B (USTR / TJM)
Fri 12:46:02 PM 59.8287 69.5493 99° East 523 602 33,000  Level FlightAware ADS-B (USTR / TJM)
Fri 12:46:24 PM 59.8208 69.6461 99° East 523 602 33,000  Level FlightAware ADS-B (USTR / TJM)
Fri 12:46:50 PM 59.8104 69.7732 99° East 522 601 33,000  Level FlightAware ADS-B (USTR / TJM)
Fri 12:46:55 PM 59.8090 69.7913 99° East 523 602 33,000  Level FlightAware ADS-B (USTR / TJM)
Fri 12:47:22 PM 59.7980 69.9254 99° East 522 601 33,000  Level FlightAware ADS-B (USTR / TJM)
Fri 12:47:45 PM 59.7887 70.0383 99° East 523 602 33,000  Level FlightAware ADS-B (USTR / TJM)
Fri 12:47:51 PM 59.7866 70.0625 99° East 523 602 33,000  Level FlightAware ADS-B (USTR / TJM)
Fri 12:48:23 PM 59.7740 70.2133 99° East 522 601 33,000  Level FlightAware ADS-B (USTR / TJM)
Fri 12:48:24 PM 59.7735 70.2184 100° East 522 601 33,000  Level FlightAware ADS-B (USTR / TJM)
Fri 12:48:52 PM 59.7620 70.3530 99° East 523 602 33,000  Level FlightAware ADS-B (USTR / TJM)
Fri 12:48:55 PM 59.7607 70.3681 100° East 524 603 33,000  Level FlightAware ADS-B (USTR / TJM)
Fri 12:49:12 PM 59.7546 70.4384 99° East 521 600 33,000  Level FlightAware ADS-B (USTR / TJM)
Fri 12:50:48 PM 59.7148 70.8883 99° East 519 597 33,000  Level FlightAware ADS-B (USTR / TJM)
Fri 12:53:00 PM 59.6829 71.3846 97° East  Level Estimated
Fri 12:54:00 PM 59.6677 71.6098 97° East  Level Estimated
Fri 12:55:00 PM 59.6522 71.8349 98° East  Level Estimated
Fri 12:56:00 PM 59.6363 72.0598 98° East  Level Estimated
Fri 12:57:00 PM 59.6200 72.2844 98° East  Level Estimated
Fri 12:58:00 PM 59.6033 72.5088 98° East  Level Estimated
Fri 12:59:00 PM 59.5862 72.7330 98° East  Level Estimated
Fri 01:00:00 PM 59.5688 72.9569 99° East  Level Estimated
Fri 01:01:00 PM 59.5509 73.1807 99° East  Level Estimated
Fri 01:02:00 PM 59.5327 73.4042 99° East  Level Estimated
Fri 01:03:00 PM 59.5141 73.6274 99° East  Level Estimated
Fri 01:04:00 PM 59.4952 73.8504 99° East  Level Estimated
Fri 01:05:00 PM 59.4758 74.0731 100° East  Level Estimated
Fri 01:06:00 PM 59.4561 74.2956 100° East  Level Estimated
Fri 01:07:00 PM 59.4360 74.5179 100° East  Level Estimated
Fri 01:08:00 PM 59.4155 74.7398 100° East  Level Estimated
Fri 01:09:00 PM 59.3946 74.9615 100° East  Level Estimated
Fri 01:10:00 PM 59.3734 75.1829 101° East  Level Estimated
Fri 01:11:00 PM 59.3518 75.4040 101° East  Level Estimated
Fri 01:12:00 PM 59.3298 75.6249 101° East  Level Estimated
Fri 01:13:00 PM 59.3075 75.8454 101° East  Level Estimated
Fri 01:14:00 PM 59.2847 76.0657 101° East  Level Estimated
Fri 01:15:00 PM 59.2616 76.2857 102° East  Level Estimated
Fri 01:16:00 PM 59.2382 76.5053 102° East  Level Estimated
Fri 01:17:00 PM 59.2143 76.7247 102° East  Level Estimated
Fri 01:18:00 PM 59.1901 76.9437 102° East  Level Estimated
Fri 01:19:00 PM 59.1656 77.1625 102° East  Level Estimated
Fri 01:20:00 PM 59.1406 77.3809 102° East  Level Estimated
Fri 01:21:00 PM 59.1153 77.5990 103° East  Level Estimated
Fri 01:22:00 PM 59.0896 77.8168 103° East  Level Estimated
Fri 01:23:00 PM 59.0636 78.0343 103° East  Level Estimated
Fri 01:24:00 PM 59.0372 78.2514 103° East  Level Estimated
Fri 01:25:00 PM 59.0104 78.4682 103° East  Level Estimated
Fri 01:26:00 PM 58.9833 78.6846 104° East  Level Estimated
Fri 01:27:00 PM 58.9558 78.9007 104° East  Level Estimated
Fri 01:28:00 PM 58.9280 79.1165 104° East  Level Estimated
Fri 01:29:00 PM 58.8997 79.3319 104° East  Level Estimated
Fri 01:30:00 PM 58.8712 79.5470 104° East  Level Estimated
Fri 01:31:00 PM 58.8423 79.7616 105° East  Level Estimated
Fri 01:32:00 PM 58.8130 79.9760 105° East  Level Estimated
Fri 01:33:00 PM 58.7834 80.1900 105° East  Level Estimated
Fri 01:34:00 PM 58.7534 80.4036 105° East  Level Estimated
Fri 01:35:00 PM 58.7230 80.6168 105° East  Level Estimated
Fri 01:36:00 PM 58.6924 80.8297 105° East  Level Estimated
Fri 01:37:00 PM 58.6613 81.0422 106° East  Level Estimated
Fri 01:38:00 PM 58.6299 81.2542 106° East  Level Estimated
Fri 01:39:00 PM 58.5982 81.4660 106° East  Level Estimated
Fri 01:40:00 PM 58.5661 81.6773 106° East  Level Estimated
Fri 01:41:00 PM 58.5337 81.8883 106° East  Level Estimated
Fri 01:42:00 PM 58.5009 82.0988 107° East  Level Estimated
Fri 01:43:00 PM 58.4678 82.3090 107° East  Level Estimated
Fri 01:44:00 PM 58.4343 82.5187 107° East  Level Estimated
Fri 01:45:00 PM 58.4005 82.7281 107° East  Level Estimated
Fri 01:46:00 PM 58.3664 82.9371 107° East  Level Estimated
Fri 01:47:00 PM 58.3319 83.1456 107° East  Level Estimated
Fri 01:48:00 PM 58.2971 83.3538 108° East  Level Estimated
Fri 01:49:00 PM 58.2619 83.5615 108° East  Level Estimated
Fri 01:50:00 PM 58.2264 83.7688 108° East  Level Estimated
Fri 01:51:00 PM 58.1906 83.9757 108° East  Level Estimated
Fri 01:52:00 PM 58.1544 84.1822 108° East  Level Estimated
Fri 01:53:00 PM 58.1179 84.3883 108° East  Level Estimated
Fri 01:54:00 PM 58.0811 84.5939 109° East  Level Estimated
Fri 01:55:00 PM 58.0439 84.7991 109° East  Level Estimated
Fri 01:56:00 PM 58.0065 85.0039 109° East  Level Estimated
Fri 01:57:00 PM 57.9686 85.2083 109° East  Level Estimated
Fri 01:58:00 PM 57.9305 85.4122 109° East  Level Estimated
Fri 01:59:00 PM 57.8920 85.6157 110° East  Level Estimated
Fri 02:00:00 PM 57.8532 85.8187 110° East  Level Estimated
Fri 02:01:00 PM 57.8141 86.0214 110° East  Level Estimated
Fri 02:02:00 PM 57.7747 86.2235 110° East  Level Estimated
Fri 02:03:00 PM 57.7349 86.4253 110° East  Level Estimated
Fri 02:04:00 PM 57.6948 86.6265 110° East  Level Estimated
Fri 02:05:00 PM 57.6544 86.8274 111° Southeast  Level Estimated
Fri 02:06:00 PM 57.6137 87.0278 111° Southeast  Level Estimated
Fri 02:07:00 PM 57.5727 87.2277 111° Southeast  Level Estimated
Fri 02:08:00 PM 57.5313 87.4272 111° Southeast  Level Estimated
Fri 02:09:00 PM 57.4897 87.6262 111° Southeast  Level Estimated
Fri 02:10:00 PM 57.4477 87.8248 111° Southeast  Level Estimated
Fri 02:11:00 PM 57.4054 88.0229 112° Southeast  Level Estimated
Fri 02:12:00 PM 57.3628 88.2206 112° Southeast  Level Estimated
Fri 02:13:00 PM 57.3199 88.4178 112° Southeast  Level Estimated
Fri 02:14:00 PM 57.2767 88.6145 112° Southeast  Level Estimated
Fri 02:15:00 PM 57.2332 88.8108 112° Southeast  Level Estimated
Fri 02:16:00 PM 57.1893 89.0066 112° Southeast  Level Estimated
Fri 02:17:00 PM 57.1452 89.2020 113° Southeast  Level Estimated
Fri 02:18:00 PM 57.1008 89.3969 113° Southeast  Level Estimated
Fri 02:19:00 PM 57.0560 89.5913 113° Southeast  Level Estimated
Fri 02:20:00 PM 57.0110 89.7852 113° Southeast  Level Estimated
Fri 02:21:00 PM 56.9657 89.9787 113° Southeast  Level Estimated
Fri 02:22:00 PM 56.9200 90.1717 113° Southeast  Level Estimated
Fri 02:23:00 PM 56.8741 90.3642 114° Southeast  Level Estimated
Fri 02:24:00 PM 56.8279 90.5563 114° Southeast  Level Estimated
Fri 02:25:00 PM 56.7814 90.7479 114° Southeast  Level Estimated
Fri 02:26:00 PM 56.7346 90.9390 114° Southeast  Level Estimated
Fri 02:27:00 PM 56.6875 91.1296 114° Southeast  Level Estimated
Fri 02:28:00 PM 56.6401 91.3197 114° Southeast  Level Estimated
Fri 02:29:00 PM 56.5924 91.5094 114° Southeast  Level Estimated
Fri 02:30:00 PM 56.5444 91.6986 115° Southeast  Level Estimated
Fri 02:31:00 PM 56.4962 91.8873 115° Southeast  Level Estimated
Fri 02:32:00 PM 56.4476 92.0755 115° Southeast  Level Estimated
Fri 02:33:00 PM 56.3988 92.2633 115° Southeast  Level Estimated
Fri 02:34:00 PM 56.3497 92.4506 115° Southeast  Level Estimated
Fri 02:35:00 PM 56.3003 92.6373 115° Southeast  Level Estimated
Fri 02:36:00 PM 56.2506 92.8236 116° Southeast  Level Estimated
Fri 02:37:00 PM 56.2007 93.0095 116° Southeast  Level Estimated
Fri 02:38:00 PM 56.1504 93.1948 116° Southeast  Level Estimated
Fri 02:39:00 PM 56.0999 93.3796 116° Southeast  Level Estimated
Fri 02:40:00 PM 56.0492 93.5640 116° Southeast  Level Estimated
Fri 02:41:00 PM 55.9981 93.7479 116° Southeast  Level Estimated
Fri 02:42:00 PM 55.9468 93.9313 116° Southeast  Level Estimated
Fri 02:43:00 PM 55.8952 94.1142 117° Southeast  Level Estimated
Fri 02:44:00 PM 55.8433 94.2966 117° Southeast  Level Estimated
Fri 02:45:00 PM 55.7912 94.4785 117° Southeast  Level Estimated
Fri 02:46:00 PM 55.7388 94.6599 117° Southeast  Level Estimated
Fri 02:47:00 PM 55.6861 94.8409 117° Southeast  Level Estimated
Fri 02:48:00 PM 55.6332 95.0213 117° Southeast  Level Estimated
Fri 02:49:00 PM 55.5800 95.2013 118° Southeast  Level Estimated
Fri 02:50:00 PM 55.5265 95.3808 118° Southeast  Level Estimated
Fri 02:51:00 PM 55.4728 95.5598 118° Southeast  Level Estimated
Fri 02:52:00 PM 55.4188 95.7383 118° Southeast  Level Estimated
Fri 02:53:00 PM 55.3645 95.9163 118° Southeast  Level Estimated
Fri 02:54:00 PM 55.3100 96.0939 118° Southeast  Level Estimated
Fri 02:55:00 PM 55.2553 96.2709 118° Southeast  Level Estimated
Fri 02:56:00 PM 55.2003 96.4474 119° Southeast  Level Estimated
Fri 02:57:00 PM 55.1450 96.6235 119° Southeast  Level Estimated
Fri 02:58:00 PM 55.0895 96.7991 119° Southeast  Level Estimated
Fri 02:59:00 PM 55.0337 96.9742 119° Southeast  Level Estimated
Fri 03:00:00 PM 54.9777 97.1488 119° Southeast  Level Estimated
Fri 03:01:00 PM 54.9214 97.3229 119° Southeast  Level Estimated
Fri 03:02:00 PM 54.8649 97.4965 119° Southeast  Level Estimated
Fri 03:03:00 PM 54.8081 97.6697 120° Southeast  Level Estimated
Fri 03:04:00 PM 54.7511 97.8423 120° Southeast  Level Estimated
Fri 03:05:00 PM 54.6938 98.0145 120° Southeast  Level Estimated
Fri 03:06:00 PM 54.6363 98.1862 120° Southeast  Level Estimated
Fri 03:07:00 PM 54.5786 98.3574 120° Southeast  Level Estimated
Fri 03:08:00 PM 54.5206 98.5281 120° Southeast  Level Estimated
Fri 03:09:00 PM 54.4624 98.6983 120° Southeast  Level Estimated
Fri 03:10:00 PM 54.4039 98.8680 121° Southeast  Level Estimated
Fri 03:11:00 PM 54.3452 99.0373 121° Southeast  Level Estimated
Fri 03:12:00 PM 54.2863 99.2061 121° Southeast  Level Estimated
Fri 03:13:00 PM 54.2271 99.3744 121° Southeast  Level Estimated
Fri 03:14:00 PM 54.1677 99.5422 121° Southeast  Level Estimated
Fri 03:15:00 PM 54.1080 99.7095 121° Southeast  Level Estimated
Fri 03:16:00 PM 54.0482 99.8763 121° Southeast  Level Estimated
Fri 03:17:00 PM 53.9881 100.0427 122° Southeast  Level Estimated
Fri 03:18:00 PM 53.9277 100.2086 122° Southeast  Level Estimated
Fri 03:19:00 PM 53.8672 100.3740 122° Southeast  Level Estimated
Fri 03:20:00 PM 53.8064 100.5389 122° Southeast  Level Estimated
Fri 03:21:00 PM 53.7454 100.7033 122° Southeast  Level Estimated
Fri 03:22:00 PM 53.6842 100.8673 122° Southeast  Level Estimated
Fri 03:23:00 PM 53.6227 101.0308 122° Southeast  Level Estimated
Fri 03:24:00 PM 53.5610 101.1938 122° Southeast  Level Estimated
Fri 03:25:00 PM 53.4991 101.3563 123° Southeast  Level Estimated
Fri 03:26:00 PM 53.4370 101.5184 123° Southeast  Level Estimated
Fri 03:27:00 PM 53.3747 101.6800 123° Southeast  Level Estimated
Fri 03:28:00 PM 53.3121 101.8411 123° Southeast  Level Estimated
Fri 03:29:00 PM 53.2493 102.0017 123° Southeast  Level Estimated
Fri 03:30:00 PM 53.1863 102.1619 123° Southeast  Level Estimated
Fri 03:31:00 PM 53.1231 102.3216 123° Southeast  Level Estimated
Fri 03:32:00 PM 53.0597 102.4809 123° Southeast  Level Estimated
Fri 03:33:00 PM 52.9961 102.6396 124° Southeast  Level Estimated
Fri 03:34:00 PM 52.9323 102.7979 124° Southeast  Level Estimated
Fri 03:35:00 PM 52.8682 102.9557 124° Southeast  Level Estimated
Fri 03:36:00 PM 52.8040 103.1131 124° Southeast  Level Estimated

Login

Don't have an account? Register now (free) for customized features, flight alerts, and more!